createdAt,value
2018-12-19T00:02:27.827Z,100553.16
2018-12-19T00:07:30.979Z,100547.03
2018-12-19T00:12:33.528Z,100538.11
2018-12-19T00:17:36.001Z,100523.08
2018-12-19T00:22:38.482Z,100517.13
2018-12-19T00:27:41.039Z,100511.42
2018-12-19T00:32:43.512Z,100494.39
2018-12-19T00:37:46.004Z,100487.53
2018-12-19T00:42:48.472Z,100492.81
2018-12-19T00:47:50.971Z,100503.54
2018-12-19T00:52:53.489Z,100493.31
2018-12-19T00:57:55.959Z,100498.80
2018-12-19T01:02:58.592Z,100502.16
2018-12-19T01:08:01.055Z,100499.19
2018-12-19T01:13:03.572Z,100491.67
2018-12-19T01:18:06.105Z,100498.41
2018-12-19T01:23:08.569Z,100497.75
2018-12-19T01:28:11.033Z,100490.04
2018-12-19T01:33:13.514Z,100484.73
2018-12-19T01:38:16.321Z,100486.72
2018-12-19T01:43:19.572Z,100485.74
2018-12-19T01:48:22.054Z,100485.34
2018-12-19T01:53:24.532Z,100466.75
2018-12-19T01:58:27.081Z,100472.89
2018-12-19T02:03:29.569Z,100478.63
2018-12-19T02:08:32.161Z,100478.23
2018-12-19T02:13:34.656Z,100468.92
2018-12-19T02:18:37.176Z,100461.00
2018-12-19T02:23:39.901Z,100452.49
2018-12-19T02:28:42.540Z,100440.22
2018-12-19T02:33:45.042Z,100427.96
2018-12-19T02:38:47.583Z,100425.98
2018-12-19T02:43:50.175Z,100423.80
2018-12-19T02:48:53.131Z,100422.61
2018-12-19T02:53:55.677Z,100418.27
2018-12-19T02:58:58.262Z,100409.02
2018-12-19T03:04:00.887Z,100403.10
2018-12-19T03:09:04.928Z,100391.62
2018-12-19T03:14:08.081Z,100378.95
2018-12-19T03:19:10.609Z,100378.73
2018-12-19T03:24:13.423Z,100380.27
2018-12-19T03:29:15.964Z,100364.23
2018-12-19T03:34:18.472Z,100348.62
2018-12-19T03:39:21.167Z,100354.73
2018-12-19T03:44:23.635Z,100352.02
2018-12-19T03:49:26.327Z,100344.30
2018-12-19T03:54:29.115Z,100343.54
2018-12-19T03:59:31.584Z,100341.77
2018-12-19T04:04:34.253Z,100341.02
2018-12-19T04:09:36.728Z,100326.53
2018-12-19T04:14:39.202Z,100335.09
2018-12-19T04:19:41.685Z,100335.80
2018-12-19T04:24:44.158Z,100326.62
2018-12-19T04:29:47.072Z,100338.11
2018-12-19T04:34:49.556Z,100353.94
2018-12-19T04:39:52.020Z,100325.64
2018-12-19T04:44:54.852Z,100336.91
2018-12-19T04:49:57.320Z,100329.98
2018-12-19T04:54:59.795Z,100332.37
2018-12-19T05:00:02.714Z,100340.09
2018-12-19T05:05:05.441Z,100346.69
2018-12-19T05:10:12.364Z,100327.58
2018-12-19T05:15:12.509Z,100324.20
2018-12-19T05:20:14.982Z,100346.77
2018-12-19T05:25:17.453Z,100330.42
2018-12-19T05:30:19.943Z,100333.44
2018-12-19T05:35:22.413Z,100321.30
2018-12-19T05:40:25.069Z,100316.16
2018-12-19T05:45:27.764Z,100314.17
2018-12-19T05:50:30.609Z,100320.29
2018-12-19T05:55:33.076Z,100316.22
2018-12-19T06:00:35.557Z,100317.33
2018-12-19T06:05:38.037Z,100304.76
2018-12-19T06:10:41.252Z,100292.95
2018-12-19T06:15:43.720Z,100305.22
2018-12-19T06:20:46.212Z,100308.45
2018-12-19T06:25:49.028Z,100302.73
2018-12-19T06:30:51.497Z,100297.00
2018-12-19T06:35:53.967Z,100300.84
2018-12-19T06:40:56.605Z,100312.88
2018-12-19T06:45:59.155Z,100308.69
2018-12-19T06:51:01.637Z,100299.54
2018-12-19T06:56:04.184Z,100305.67
2018-12-19T07:01:06.648Z,100307.72
2018-12-19T07:06:09.270Z,100310.30
2018-12-19T07:11:12.092Z,100324.61
2018-12-19T07:16:14.697Z,100321.65
2018-12-19T07:21:17.746Z,100341.64
2018-12-19T07:26:20.239Z,100346.45
2018-12-19T07:31:23.068Z,100341.45
2018-12-19T07:36:25.536Z,100353.58
2018-12-19T07:41:28.049Z,100355.55
2018-12-19T07:46:30.517Z,100362.20
2018-12-19T07:51:32.984Z,100360.55
2018-12-19T07:56:35.445Z,100360.05
2018-12-19T08:01:37.913Z,100359.81
2018-12-19T08:06:40.500Z,100347.72
2018-12-19T08:11:42.972Z,100356.27
2018-12-19T08:16:45.442Z,100355.60
2018-12-19T08:21:47.910Z,100339.90
2018-12-19T08:26:50.373Z,100332.63
2018-12-19T08:31:52.868Z,100334.49
2018-12-19T08:36:55.517Z,100340.72
2018-12-19T08:41:58.274Z,100342.75
2018-12-19T08:47:00.853Z,100328.81
2018-12-19T08:52:03.356Z,100331.75
2018-12-19T08:57:05.898Z,100329.30
2018-12-19T09:02:08.632Z,100337.02
2018-12-19T09:07:11.276Z,100342.31
2018-12-19T09:12:13.740Z,100338.91
2018-12-19T09:17:16.432Z,100342.69
2018-12-19T09:22:19.444Z,100354.16
2018-12-19T09:27:21.952Z,100343.48
2018-12-19T09:32:24.509Z,100351.92
2018-12-19T09:37:27.100Z,100342.79
2018-12-19T09:42:29.601Z,100330.12
2018-12-19T09:47:32.188Z,100331.89
2018-12-19T09:52:34.780Z,100323.17
2018-12-19T09:57:37.516Z,100322.13
2018-12-19T10:02:40.077Z,100308.27
2018-12-19T10:07:42.601Z,100310.03
2018-12-19T10:12:45.161Z,100307.83
2018-12-19T10:17:47.757Z,100299.25
2018-12-19T10:22:52.168Z,100293.11
2018-12-19T10:27:54.679Z,100288.61
2018-12-19T10:32:57.221Z,100286.19
2018-12-19T10:37:59.760Z,100281.02
2018-12-19T10:43:02.260Z,100267.56
2018-12-19T10:48:04.745Z,100276.67
2018-12-19T10:53:07.241Z,100276.63
2018-12-19T10:58:09.737Z,100270.34
2018-12-19T11:03:12.333Z,100271.31
2018-12-19T11:08:14.920Z,100267.12
2018-12-19T11:13:18.233Z,100271.09
2018-12-19T11:18:20.830Z,100268.06
2018-12-19T11:23:23.421Z,100265.13
2018-12-19T11:28:25.959Z,100259.70
2018-12-19T11:33:28.508Z,100242.88
2018-12-19T11:38:31.408Z,100246.25
2018-12-19T11:43:34.009Z,100239.31
2018-12-19T11:48:36.572Z,100236.25
2018-12-19T11:53:39.088Z,100226.58
2018-12-19T12:03:50.519Z,100216.66
2018-12-19T12:08:53.126Z,100206.95
2018-12-19T12:18:56.260Z,100212.42
2018-12-19T12:23:58.967Z,100212.42
2018-12-19T12:29:01.552Z,100216.53
2018-12-19T12:34:04.146Z,100196.56
2018-12-19T12:39:06.732Z,100201.34
2018-12-19T12:44:09.329Z,100209.60
2018-12-19T12:49:11.919Z,100203.64
2018-12-19T12:54:14.395Z,100200.80
2018-12-19T12:59:16.903Z,100203.02
2018-12-19T13:04:19.415Z,100203.69
2018-12-19T13:09:21.916Z,100208.22
2018-12-19T13:14:24.421Z,100203.52
2018-12-19T13:19:26.972Z,100206.91
2018-12-19T13:24:29.876Z,100205.16
2018-12-19T13:29:32.365Z,100209.73
2018-12-19T13:34:34.866Z,100221.60
2018-12-19T13:39:37.453Z,100216.77
2018-12-19T13:44:40.251Z,100218.00
2018-12-19T13:49:42.752Z,100217.22
2018-12-19T13:54:45.235Z,100217.81
2018-12-19T13:59:47.837Z,100218.83
2018-12-19T14:04:50.452Z,100226.55
2018-12-19T14:09:53.160Z,100216.28
2018-12-19T14:14:55.825Z,100210.92
2018-12-19T14:19:58.412Z,100214.30
2018-12-19T14:25:01.008Z,100216.66
2018-12-19T14:30:04.426Z,100223.36
2018-12-19T14:35:06.961Z,100219.55
2018-12-19T14:40:09.508Z,100220.94
2018-12-19T14:45:12.325Z,100209.69
2018-12-19T14:50:14.906Z,100217.55
2018-12-19T14:55:17.389Z,100216.73
2018-12-19T15:00:20.620Z,100210.03
2018-12-19T15:05:23.121Z,100214.78
2018-12-19T15:10:25.688Z,100204.30
2018-12-19T15:15:28.281Z,100207.86
2018-12-19T15:20:31.289Z,100200.31
2018-12-19T15:25:34.032Z,100201.52
2018-12-19T15:30:36.867Z,100200.73
2018-12-19T15:35:39.475Z,100193.81
2018-12-19T15:40:42.276Z,100192.42
2018-12-19T15:45:44.763Z,100192.19
2018-12-19T15:50:47.240Z,100180.13
2018-12-19T15:55:49.700Z,100178.94
2018-12-19T16:00:52.167Z,100179.52
2018-12-19T16:05:54.657Z,100170.79
2018-12-19T16:10:57.120Z,100172.33
2018-12-19T16:15:59.936Z,100161.28
2018-12-19T16:21:02.399Z,100153.56
2018-12-19T16:26:04.908Z,100154.50
2018-12-19T16:31:07.444Z,100159.70
2018-12-19T16:36:09.932Z,100150.34
2018-12-19T16:41:12.584Z,100137.15
2018-12-19T16:46:15.046Z,100145.34
2018-12-19T16:51:18.283Z,100136.47
2018-12-19T16:56:21.004Z,100137.01
2018-12-19T17:01:23.532Z,100140.20
2018-12-19T17:06:26.108Z,100133.11
2018-12-19T17:11:28.568Z,100129.00
2018-12-19T17:16:31.186Z,100135.87
2018-12-19T17:21:33.657Z,100137.39
2018-12-19T17:26:36.118Z,100138.41
2018-12-19T17:31:38.582Z,100136.95
2018-12-19T17:36:41.747Z,100132.00
2018-12-19T17:41:44.216Z,100148.48
2018-12-19T17:46:46.680Z,100165.13
2018-12-19T17:51:49.168Z,100148.12
2018-12-19T17:56:51.635Z,100138.59
2018-12-19T18:01:54.164Z,100128.89
2018-12-19T18:06:57.557Z,100135.45
2018-12-19T18:12:00.027Z,100128.52
2018-12-19T18:17:02.507Z,100127.14
2018-12-19T18:22:05.017Z,100144.14
2018-12-19T18:27:07.681Z,100145.58
2018-12-19T18:32:10.204Z,100145.98
2018-12-19T18:37:12.724Z,100139.70
2018-12-19T18:42:15.185Z,100136.75
2018-12-19T18:47:17.820Z,100142.09
2018-12-19T18:52:20.349Z,100149.02
2018-12-19T18:57:22.889Z,100151.02
2018-12-19T19:02:25.638Z,100155.37
2018-12-19T19:07:28.221Z,100166.97
2018-12-19T19:12:31.514Z,100161.93
2018-12-19T19:17:34.036Z,100130.88
2018-12-19T19:22:36.657Z,100167.55
2018-12-19T19:27:39.229Z,100163.39
2018-12-19T19:32:41.754Z,100157.05
2018-12-19T19:37:44.308Z,100150.17
2018-12-19T19:42:46.805Z,100148.78
2018-12-19T19:47:49.418Z,100149.34
2018-12-19T19:52:52.092Z,100149.64
2018-12-19T19:57:54.693Z,100162.64
2018-12-19T20:02:57.289Z,100149.83
2018-12-19T20:07:59.877Z,100142.75
2018-12-19T20:13:02.395Z,100156.20
2018-12-19T20:18:05.343Z,100148.67
2018-12-19T20:23:07.828Z,100159.34
2018-12-19T20:28:10.351Z,100148.25
2018-12-19T20:33:12.832Z,100145.48
2018-12-19T20:38:15.449Z,100142.41
2018-12-19T20:43:18.440Z,100141.73
2018-12-19T20:48:20.932Z,100139.27
2018-12-19T20:53:23.428Z,100141.14
2018-12-19T20:58:26.139Z,100139.20
2018-12-19T21:03:28.823Z,100138.26
2018-12-19T21:08:31.316Z,100128.86
2018-12-19T21:13:34.158Z,100130.28
2018-12-19T21:18:42.370Z,100119.80
2018-12-19T21:23:44.934Z,100121.14
2018-12-19T21:28:47.407Z,100111.81
2018-12-19T21:33:49.924Z,100112.23
2018-12-19T21:38:52.401Z,100109.64
2018-12-19T21:43:55.524Z,100103.12
2018-12-19T21:48:58.090Z,100097.20
2018-12-19T21:54:00.561Z,100093.43
2018-12-19T21:59:03.672Z,100097.52
2018-12-19T22:04:06.160Z,100095.34
2018-12-19T22:09:08.893Z,100103.36
2018-12-19T22:14:11.414Z,100096.95
2018-12-19T22:19:13.912Z,100102.98
2018-12-19T22:24:16.469Z,100115.30
2018-12-19T22:29:19.016Z,100111.27
2018-12-19T22:34:21.665Z,100114.47
2018-12-19T22:39:24.339Z,100111.22
2018-12-19T22:44:26.862Z,100108.75
2018-12-19T22:49:29.492Z,100117.77
2018-12-19T22:54:32.548Z,100115.19
2018-12-19T22:59:35.806Z,100109.76
2018-12-19T23:04:38.358Z,100114.89
2018-12-19T23:09:40.939Z,100105.19
2018-12-19T23:14:43.935Z,100109.16
2018-12-19T23:19:46.557Z,100114.58
2018-12-19T23:24:49.145Z,100112.75
2018-12-19T23:29:51.671Z,100107.81
2018-12-19T23:34:54.228Z,100111.81
2018-12-19T23:39:56.919Z,100110.42
2018-12-19T23:44:59.435Z,100106.91
2018-12-19T23:50:02.198Z,100100.36
2018-12-19T23:55:05.727Z,100105.14
